100LL.CA
Aviation Fuel Pricing for Canadians
Please upgrade your browser - Tested with IE9, FireFox, Chrome, Safari

Fuel Airports Other Help
Prices Economy Info List METAR/TAF Kneeboard Help

Reference Airport: SAINT JOHN, NB
N 45 18 57.3320  W 065 53 24.4376
Provinces to show:

CYSJ SAINT JOHN, NB
WEATHER
METARCYSJ 221500Z 24005KT 210V270 15SM FEW160 OVC210 21/13 A3008 RMK AC1CI8 AC TR SLP189 DENSITY ALT 1000FT
TAFTAF CYSJ 221140Z 2212/2224 VRB03KT P6SM BKN200 BECMG 2213/2215 23010KT RMK NXT FCST BY 221800Z
OTHER SITES

FlightAware

FltPlan

Google Maps

SkyVector
FUEL
FBO 100LL
member
100LL
public
JETA MOGAS
Atlantic Flight Centre (2018-06-26)2.1901.930
  Note: Atlantic Flight Center - http://www.afcfbo.com. Monday - Friday 0800 - 1700 Closed Weekends and Holidays, $100/hr for service outside those times.
Canada Flight Supplement - CYSJ
(opens in new tab/window)


Please Send Updates!

Desktop Version ]  [ Mobile Version ]  [ Disclaimer ]